Date,TemperatureHighF,TemperatureAvgF,TemperatureLowF,DewpointHighF,DewpointAvgF,DewpointLowF,HumidityHigh,HumidityAvg,HumidityLow,PressureMaxIn,PressureMinIn,WindSpeedMaxMPH,WindSpeedAvgMPH,GustSpeedMaxMPH,PrecipitationSumIn
2013-1-1,43,32,18,28,18,4,69,58,47,29.95,29.74,23,6,23,0.00
2013-1-2,34,24,12,19,11,-5,73,62,47,30.20,29.92,18,6,19,0.00
2013-1-3,32,16,3,22,5,-5,74,65,54,30.20,29.92,15,2,16,0.00
2013-1-4,44,36,22,27,22,11,75,61,47,30.07,29.81,19,4,19,0.05
2013-1-5,43,36,27,27,23,18,75,60,47,30.22,29.89,16,4,16,0.00
2013-1-6,47,39,29,29,27,20,84,67,51,30.17,29.88,16,3,18,0.00
2013-1-7,42,35,24,35,24,17,82,69,58,30.34,29.96,22,4,22,0.00
2013-1-8,48,37,29,29,26,18,83,68,49,30.34,30.22,13,3,17,0.00
2013-1-9,52,40,23,37,28,18,90,68,39,30.36,29.97,34,6,36,0.00
2013-1-10,50,43,33,28,25,23,72,52,40,30.51,30.13,28,7,34,0.00
2013-1-11,45,37,29,42,31,23,94,80,60,30.49,30.05,16,4,16,0.04
2013-1-12,49,44,41,47,43,39,96,94,92,30.11,30.02,11,3,13,0.00
2013-1-13,52,47,41,49,46,40,97,96,95,30.09,29.78,23,6,32,0.07
2013-1-14,54,47,40,53,38,25,96,75,55,30.29,29.78,24,7,27,0.07
2013-1-15,42,38,36,27,25,23,69,62,52,30.32,30.03,14,4,15,0.00
2013-1-16,37,35,33,35,31,25,94,88,68,30.18,29.78,5,0,5,0.00
2013-1-17,43,35,28,40,26,5,95,74,51,30.28,29.83,16,4,18,0.14
2013-1-18,32,26,22,14,8,-2,61,49,36,30.37,30.04,24,6,28,0.00
2013-1-19,49,41,28,30,23,12,60,51,41,30.23,29.56,27,10,27,0.08
2013-1-20,53,41,28,35,22,10,62,49,24,30.03,29.56,27,8,28,0.00
2013-1-21,31,27,20,22,16,-1,84,68,47,30.03,29.74,21,3,25,0.00
2013-1-22,26,20,15,20,0,-6,83,44,31,30.12,29.75,22,6,23,0.00
2013-1-23,19,13,6,5,-3,-5,72,52,36,30.15,30.07,20,4,21,0.00
2013-1-24,22,15,5,4,-1,-6,73,55,30,30.34,30.09,33,7,35,0.00
2013-1-25,23,18,11,13,6,0,82,62,45,30.35,30.00,13,4,16,0.00
2013-1-26,28,19,14,12,8,3,84,65,39,30.39,30.00,23,6,24,0.00
2013-1-27,35,24,12,13,4,1,80,49,26,30.45,30.29,17,4,19,0.00
2013-1-28,38,31,20,35,23,2,91,77,47,30.43,29.90,19,3,19,0.00
2013-1-29,46,40,33,41,36,30,92,88,79,30.09,29.76,25,4,25,0.03
2013-1-30,60,52,43,59,51,41,96,95,91,29.99,28.88,25,7,26,0.99
2013-1-31,60,45,33,59,29,9,96,58,34,29.75,28.88,26,8,32,1.00
2013-2-1,34,29,24,17,10,5,63,46,37,30.18,29.63,25,7,29,0.00
2013-2-2,32,26,17,19,13,7,78,61,38,30.18,29.90,21,5,23,0.00
2013-2-3,34,26,18,22,17,12,85,71,46,29.99,29.73,12,1,16,0.00
2013-2-4,32,27,24,21,12,6,79,56,37,29.94,29.73,21,4,24,0.00
2013-2-5,34,28,23,26,18,12,84,67,51,29.97,29.84,9,3,9,0.00
2013-2-6,41,32,21,30,17,1,89,59,28,30.45,29.85,21,5,24,0.00
2013-2-7,33,28,20,17,9,5,61,48,36,30.48,30.15,11,3,13,0.00
2013-2-8,34,31,28,30,23,13,93,77,48,30.30,29.73,26,5,26,0.00
2013-2-9,30,24,12,26,13,-3,94,67,41,30.42,29.78,34,10,34,0.00
2013-2-10,36,22,7,18,6,-3,73,54,35,30.45,30.01,21,3,21,0.00
2013-2-11,45,39,33,42,34,11,93,82,42,30.21,29.61,16,6,20,0.08
2013-2-12,46,42,39,42,29,22,93,62,51,29.91,29.65,19,5,19,0.00
2013-2-13,46,40,35,27,24,20,67,54,42,29.88,29.67,13,2,13,0.00
2013-2-14,46,39,28,28,25,20,78,59,45,29.90,29.67,13,3,16,0.00
2013-2-15,56,45,36,34,29,25,87,58,41,29.96,29.83,18,6,18,0.00
2013-2-16,38,34,29,33,21,5,92,64,44,29.96,29.65,23,7,26,0.00
2013-2-17,29,25,20,12,5,0,55,46,31,30.11,29.62,42,12,44,0.00
2013-2-18,36,26,18,13,5,0,64,45,29,30.14,29.90,26,7,28,0.00
2013-2-19,45,36,21,38,26,9,93,72,46,30.11,29.57,29,4,31,0.11
2013-2-20,37,33,29,35,15,8,91,52,37,29.89,29.61,23,6,25,0.00
2013-2-21,32,28,25,18,14,11,69,57,48,30.37,29.85,24,8,27,0.00
2013-2-22,40,34,26,28,22,17,74,64,53,30.38,30.10,12,4,14,0.00
2013-2-23,41,39,36,39,35,27,95,88,67,30.20,29.75,10,3,10,0.07
2013-2-24,45,39,37,42,33,24,97,80,54,30.04,29.70,19,5,20,0.09
2013-2-25,46,40,31,32,28,24,83,65,50,30.25,29.93,14,3,14,0.00
2013-2-26,48,40,30,35,28,24,94,67,47,30.26,29.73,14,3,15,0.02
2013-2-27,48,42,36,45,38,28,95,89,68,29.97,29.47,16,3,24,1.11
2013-2-28,46,42,40,43,38,32,96,87,73,29.62,29.51,11,3,11,0.15
2013-3-1,47,41,35,35,31,24,81,69,54,29.73,29.56,19,6,22,0.00
2013-3-2,40,36,32,27,24,15,73,66,56,29.73,29.66,19,7,19,0.00
2013-3-3,37,32,28,27,20,15,71,63,55,29.74,29.64,23,8,27,0.00
2013-3-4,39,35,31,24,22,20,70,61,52,29.97,29.71,29,9,29,0.00
2013-3-5,46,39,34,29,26,24,80,64,51,30.01,29.86,19,6,21,0.00
2013-3-6,48,40,34,36,29,25,84,67,52,30.04,29.95,23,7,27,0.00
2013-3-7,42,38,34,35,30,25,96,77,57,30.09,30.00,22,8,23,0.00
2013-3-8,43,37,34,38,32,23,97,85,61,30.27,30.01,19,9,23,0.20
2013-3-9,53,40,28,28,25,21,82,59,34,30.31,30.21,18,5,21,0.06
2013-3-10,57,44,27,36,29,21,86,60,37,30.32,30.14,21,6,22,0.00
2013-3-11,55,48,40,48,40,34,83,74,62,30.20,29.84,21,8,23,0.05
2013-3-12,58,52,42,56,48,29,95,86,75,29.97,29.61,19,7,24,1.67
2013-3-13,50,43,37,37,29,13,79,60,36,29.83,29.72,23,5,23,0.00
2013-3-14,40,33,30,26,15,9,62,49,41,29.89,29.79,24,8,26,0.00
2013-3-15,43,37,26,33,22,13,78,57,41,29.89,29.63,18,6,19,0.00
2013-3-16,41,36,28,25,18,13,65,52,39,30.01,29.73,13,4,16,0.00
2013-3-17,39,33,27,20,12,6,63,45,29,30.39,29.88,25,6,26,0.00
2013-3-18,41,32,21,27,15,8,87,56,32,30.39,29.81,11,3,15,0.00
2013-3-19,40,36,32,38,33,20,95,89,74,30.01,29.65,15,3,17,0.00
2013-3-20,44,36,29,27,21,17,83,59,37,29.78,29.71,16,4,23,0.16
2013-3-21,41,33,24,24,17,12,84,56,35,29.78,29.58,18,4,18,0.11
2013-3-22,41,35,24,26,21,13,73,60,44,29.78,29.65,20,3,22,0.03
2013-3-23,46,40,35,28,22,18,75,53,36,29.85,29.74,26,7,31,0.00
2013-3-24,47,41,37,25,24,22,61,52,42,29.87,29.63,18,6,19,0.00
2013-3-25,49,42,35,29,27,25,70,58,42,29.70,29.44,18,5,19,0.00
2013-3-26,50,44,38,33,27,20,71,55,38,29.83,29.55,14,4,15,0.00
2013-3-27,55,45,30,30,26,20,75,51,31,29.93,29.79,21,5,25,0.00
2013-3-28,51,47,42,38,33,29,70,60,53,30.07,29.88,18,6,21,0.00
2013-3-29,53,47,34,33,31,26,78,55,41,30.08,30.00,18,5,19,0.00
2013-3-30,60,48,34,37,27,21,81,49,25,30.10,29.99,17,3,18,0.00
2013-3-31,61,46,31,44,32,21,92,62,31,30.07,29.58,20,4,21,0.12
2013-4-1,59,46,36,53,34,15,95,68,35,29.89,29.52,24,6,26,0.02
2013-4-2,43,37,30,20,15,11,66,42,29,30.04,29.83,23,6,27,0.00
2013-4-3,44,38,34,20,17,15,59,43,32,30.31,29.97,27,8,30,0.00
2013-4-4,59,46,33,27,22,17,60,41,25,30.31,29.85,18,6,18,0.00
2013-4-5,60,49,41,27,24,12,55,41,26,30.17,29.70,27,7,27,0.00
2013-4-6,52,41,34,26,14,8,60,37,21,30.24,29.95,19,6,21,0.00
2013-4-7,64,52,35,43,32,15,75,49,25,30.20,29.87,27,8,31,0.00
2013-4-8,65,56,47,44,40,37,78,56,40,30.05,29.80,22,5,23,0.00
2013-4-9,72,63,57,52,46,42,67,54,39,29.98,29.80,20,6,20,0.23
2013-4-10,64,56,51,54,50,42,94,82,58,29.97,29.76,14,5,19,0.38
2013-4-11,51,45,37,49,35,23,93,70,41,30.09,29.82,23,7,23,0.11
2013-4-12,45,41,37,44,39,33,95,92,85,30.07,29.72,10,3,11,0.49
2013-4-13,57,49,41,49,41,37,94,76,53,29.95,29.76,10,2,11,0.01
2013-4-14,52,43,34,44,31,26,89,67,40,30.29,29.88,19,3,21,0.00
2013-4-15,66,55,34,39,34,26,84,49,35,30.31,30.17,19,5,20,0.00
2013-4-16,66,59,49,59,48,31,89,68,50,30.29,30.00,20,7,23,0.11
2013-4-17,68,57,48,56,39,33,89,53,31,30.29,30.09,19,5,21,0.11
2013-4-18,68,56,40,52,41,33,84,62,35,30.29,29.86,21,7,24,0.00
2013-4-19,77,65,48,64,58,44,91,80,63,29.99,29.50,26,8,28,0.60
2013-4-20,59,50,42,49,35,20,93,63,32,30.48,29.67,21,6,24,0.53
2013-4-21,54,44,37,26,22,18,58,43,28,30.62,30.29,25,6,25,0.00
2013-4-22,63,49,34,34,28,21,74,48,26,30.64,30.39,16,3,17,0.00
2013-4-23,57,47,37,42,36,28,81,67,57,30.47,29.99,8,2,10,0.00
2013-4-24,78,60,37,53,47,33,89,65,37,30.07,29.67,26,5,31,0.08
2013-4-25,63,53,42,54,33,28,85,50,29,30.34,29.73,21,6,22,0.08
2013-4-26,63,51,37,40,33,28,84,54,33,30.40,30.21,20,4,22,0.00
2013-4-27,70,54,36,41,33,28,80,49,25,30.40,30.21,14,2,16,0.00
2013-4-28,78,61,41,43,37,31,80,45,25,30.25,30.07,14,4,17,0.00
2013-4-29,63,58,53,53,47,32,92,69,36,30.22,30.13,17,4,17,0.05
2013-4-30,75,63,52,52,43,29,93,54,26,30.37,30.16,14,4,16,0.01
2013-5-1,80,64,46,44,37,29,66,39,20,30.40,30.28,14,4,14,0.00
2013-5-2,84,68,48,52,43,30,84,45,23,30.43,30.21,19,3,19,0.00
2013-5-3,76,64,52,43,37,30,57,39,23,30.43,30.26,11,3,12,0.00
2013-5-4,80,63,47,51,44,35,85,54,26,30.31,30.11,13,3,13,0.00
2013-5-5,77,61,44,47,41,34,85,52,23,30.25,30.09,13,4,13,0.00
2013-5-6,77,62,44,54,47,39,88,60,29,30.21,30.04,12,4,13,0.00
2013-5-7,83,69,54,57,54,50,88,62,33,30.11,29.99,13,3,14,0.00
2013-5-8,74,67,59,67,60,52,89,80,64,30.09,29.90,10,2,13,0.07
2013-5-9,72,63,55,61,57,52,92,81,61,29.96,29.83,10,2,11,0.00
2013-5-10,82,70,54,67,57,52,94,66,40,29.94,29.71,13,3,14,0.00
2013-5-11,72,67,61,68,62,51,92,84,67,29.79,29.63,14,5,16,0.45
2013-5-12,66,58,50,54,42,26,87,60,28,29.92,29.61,19,4,23,0.13
2013-5-13,56,49,38,35,30,26,79,50,38,30.07,29.84,16,4,18,0.00
2013-5-14,63,49,37,39,32,26,88,58,28,30.07,29.95,16,3,19,0.00
2013-5-15,71,56,37,56,46,33,88,73,50,30.00,29.58,21,3,23,0.05
2013-5-16,86,71,54,62,45,36,91,47,19,30.00,29.64,22,4,22,0.00
2013-5-17,74,63,53,48,43,39,76,50,32,30.24,29.82,18,5,21,0.00
2013-5-18,74,62,46,54,49,42,89,66,34,30.26,30.17,15,3,19,0.00
2013-5-19,63,61,59,60,57,53,92,88,78,30.26,30.00,11,3,15,0.02
2013-5-20,87,72,61,68,64,58,93,76,51,30.10,29.85,8,2,9,0.00
2013-5-21,94,76,64,73,68,61,93,79,48,29.90,29.74,19,2,20,0.56
2013-5-22,82,75,67,73,70,63,94,85,72,29.84,29.73,14,4,16,0.56
2013-5-23,79,74,70,73,68,63,92,83,71,29.80,29.63,14,4,16,0.38
2013-5-24,71,56,47,69,52,44,94,88,73,29.94,29.62,23,6,53,1.01
2013-5-25,53,50,48,47,44,41,92,80,70,29.90,29.82,26,9,31,0.39
2013-5-26,64,54,45,45,42,38,86,64,43,30.15,29.82,27,7,31,0.00
2013-5-27,77,61,41,53,40,35,92,53,23,30.17,30.05,19,3,19,0.00
2013-5-28,73,60,46,59,51,38,89,72,42,30.17,30.00,13,2,14,0.72
2013-5-29,85,70,62,74,66,59,95,87,64,30.08,29.88,30,3,42,1.29
2013-5-30,96,78,64,78,70,63,97,80,45,30.07,29.98,11,2,11,0.02
2013-5-31,97,82,69,76,69,62,95,68,38,30.07,29.89,14,2,14,0.00
2013-6-1,95,83,69,73,69,62,82,64,45,29.93,29.75,19,3,19,0.00
2013-6-2,91,79,72,75,71,68,92,77,55,29.80,29.67,15,4,16,0.15
2013-6-3,78,69,60,69,59,43,94,71,52,29.94,29.74,14,5,19,0.02
2013-6-4,76,66,57,47,44,40,64,46,32,30.15,29.91,22,6,23,0.00
2013-6-5,78,66,52,55,49,42,81,55,32,30.17,30.05,8,2,10,0.00
2013-6-6,76,66,59,60,55,49,93,71,45,30.10,29.91,18,2,18,0.13
2013-6-7,64,62,60,63,60,58,96,96,93,29.98,29.65,14,3,14,1.49
2013-6-8,79,67,59,66,60,55,96,81,56,30.11,29.65,11,4,13,0.46
2013-6-9,82,68,57,69,60,55,95,76,46,30.14,30.03,8,2,9,0.00
2013-6-10,69,64,59,67,63,57,97,95,87,30.14,29.67,6,2,7,0.37
2013-6-11,79,70,64,77,65,55,99,87,68,29.81,29.53,19,3,20,0.34
2013-6-12,77,68,59,60,56,54,90,68,47,29.81,29.63,19,5,24,0.00
2013-6-13,62,60,57,61,58,55,97,95,90,29.79,29.60,16,3,17,0.13
2013-6-14,79,67,57,63,59,53,96,76,46,29.91,29.62,17,4,18,0.15
2013-6-15,83,69,57,61,54,48,91,63,32,29.95,29.83,16,3,16,0.00
2013-6-16,78,70,56,65,60,53,92,73,57,29.94,29.67,11,2,13,0.00
2013-6-17,90,73,62,71,64,59,94,78,40,29.88,29.75,28,3,33,0.00
2013-6-18,71,66,62,68,60,50,97,84,68,29.98,29.84,16,4,19,0.00
2013-6-19,77,65,56,55,51,46,91,65,38,30.22,29.90,17,4,18,0.00
2013-6-20,85,70,52,60,56,49,95,66,42,30.23,30.14,10,2,11,0.00
2013-6-21,87,77,62,70,65,57,89,69,53,30.23,30.15,9,2,10,0.00
2013-6-22,88,78,64,68,65,59,88,66,49,30.18,30.03,12,3,14,0.00
2013-6-23,94,84,74,76,71,63,79,66,43,30.09,29.95,14,4,18,0.00
2013-6-24,95,80,70,78,72,65,93,78,54,30.00,29.88,16,2,17,0.01
2013-6-25,93,79,67,77,72,65,96,79,53,29.95,29.72,16,2,16,0.00
2013-6-26,86,79,72,79,72,67,96,82,61,29.79,29.72,10,2,10,0.00
2013-6-27,90,79,69,79,72,67,97,82,59,29.79,29.38,19,3,24,0.12
2013-6-28,88,78,72,75,72,69,96,82,57,29.52,29.38,13,3,16,0.07
2013-6-29,87,77,70,75,70,66,97,80,55,29.74,29.44,14,3,18,0.00
2013-6-30,90,76,69,76,72,67,98,88,62,29.92,29.65,11,2,13,0.00
2013-7-1,82,76,72,81,75,71,99,97,90,30.04,29.87,11,2,11,0.00
2013-7-2,88,80,76,82,77,74,99,93,72,30.13,29.98,15,3,18,0.09
2013-7-3,91,83,77,79,76,73,94,81,65,30.17,30.08,10,4,13,0.01
2013-7-4,93,85,75,80,76,73,96,77,60,30.17,30.05,16,3,19,0.00
2013-7-5,95,87,79,80,77,74,91,73,58,30.13,30.00,11,3,14,0.00
2013-7-6,95,85,78,80,76,73,92,76,54,30.07,29.97,10,2,10,0.00
2013-7-7,95,82,75,86,78,73,96,87,64,30.01,29.86,11,2,11,0.00
2013-7-8,91,80,74,80,74,69,98,82,54,30.03,29.90,11,2,14,0.00
2013-7-9,90,80,72,79,74,70,97,84,65,30.04,29.88,11,2,12,0.00
2013-7-10,87,81,76,82,77,73,94,88,76,29.95,29.72,13,3,16,0.00
2013-7-11,87,80,74,76,69,62,96,72,46,30.03,29.72,16,4,18,0.01
2013-7-12,87,78,71,70,64,59,77,63,50,30.19,29.93,14,4,14,0.00
2013-7-13,79,74,69,76,70,59,96,89,54,30.28,30.13,8,2,8,0.00
2013-7-14,93,83,75,80,77,74,98,84,61,30.29,30.17,8,2,8,0.00
2013-7-15,96,86,78,83,74,67,97,69,44,30.20,30.10,13,3,16,0.00
2013-7-16,96,84,73,78,73,67,91,71,42,30.19,30.10,14,2,15,0.00
2013-7-17,97,86,74,80,76,72,96,75,48,30.18,30.00,8,2,10,0.00
2013-7-18,100,87,78,82,77,73,93,74,46,30.03,29.89,10,2,10,0.00
2013-7-19,100,89,77,82,78,73,96,72,49,29.94,29.71,14,3,15,0.00
2013-7-20,95,83,73,80,72,62,89,72,51,29.91,29.69,18,3,18,0.00
2013-7-21,89,78,67,73,68,61,92,73,51,29.98,29.86,12,2,13,0.00
2013-7-22,88,79,71,76,71,61,98,78,62,29.99,29.63,10,3,11,0.62
2013-7-23,86,78,75,82,76,73,100,93,69,29.77,29.51,13,2,13,0.59
2013-7-24,81,74,65,75,64,53,99,74,53,30.03,29.58,20,5,23,0.01
2013-7-25,77,68,60,62,57,53,78,68,55,30.07,29.98,14,4,15,0.00
2013-7-26,82,71,64,66,62,57,92,73,53,30.03,29.96,18,4,18,0.00
2013-7-27,87,74,63,77,66,61,98,77,49,30.02,29.90,11,2,13,0.00
2013-7-28,78,73,70,77,71,64,98,93,79,29.97,29.89,7,2,9,0.00
2013-7-29,87,76,67,74,67,58,98,75,53,30.11,29.92,11,3,13,0.00
2013-7-30,82,71,60,69,63,58,95,77,52,30.14,30.05,11,2,14,0.00
2013-7-31,85,73,61,69,64,59,96,75,48,30.14,29.92,7,1,8,0.00
2013-8-1,80,71,66,72,68,62,99,91,73,29.99,29.77,15,2,17,0.24
2013-8-2,87,73,66,77,68,62,100,85,46,29.86,29.77,18,2,18,0.18
2013-8-3,84,72,63,73,64,57,99,79,43,29.86,29.77,11,2,11,0.01
2013-8-4,80,70,60,73,59,53,96,70,42,30.00,29.81,19,4,20,0.46
2013-8-5,80,69,58,57,53,46,88,60,37,30.07,29.93,17,4,23,0.00
2013-8-6,83,71,54,65,59,52,96,69,42,30.11,30.02,10,2,10,0.00
2013-8-7,79,73,67,70,66,61,94,80,68,30.11,29.96,10,2,13,0.01
2013-8-8,87,79,72,77,74,70,98,86,70,30.00,29.86,13,3,16,0.11
2013-8-9,83,77,74,83,76,66,100,97,88,29.93,29.75,13,2,13,0.46
2013-8-10,84,74,63,75,62,52,99,67,44,30.09,29.83,18,3,18,0.01
2013-8-11,83,70,56,67,60,52,94,75,51,30.10,29.97,7,2,8,0.00
2013-8-12,84,74,62,71,66,59,97,77,48,30.01,29.76,8,2,8,0.00
2013-8-13,81,73,68,77,68,52,98,87,76,29.87,29.63,16,3,17,0.00
2013-8-14,75,68,61,63,56,52,83,65,51,30.07,29.74,22,5,22,0.00
2013-8-15,78,66,55,62,57,52,94,74,43,30.10,29.99,12,2,16,0.00
2013-8-16,60,60,59,58,58,57,93,93,92,30.10,30.10,1,0,1,0.00
2013-8-27,86,76,69,75,71,67,98,86,66,29.88,29.83,5,1,5,0.02
2013-8-28,91,76,68,80,71,67,99,87,56,29.95,29.79,11,2,14,0.00
2013-8-29,85,75,69,73,70,68,98,85,63,30.01,29.88,6,2,8,0.00
2013-8-30,88,79,71,75,72,68,95,82,63,29.98,29.75,10,2,11,0.00
2013-8-31,88,79,75,79,76,72,99,90,74,29.81,29.71,19,3,21,0.00
2013-9-1,88,79,72,79,76,72,100,91,74,29.83,29.73,9,1,9,0.00
2013-9-2,84,76,70,83,75,67,100,95,84,29.78,29.64,18,2,21,0.00
2013-9-3,80,72,65,72,66,58,100,83,60,29.92,29.70,16,2,18,0.00
2013-9-4,84,73,63,68,62,58,92,72,47,29.94,29.84,10,2,13,0.00
2013-9-5,74,67,57,66,54,44,94,66,36,30.23,29.86,19,4,21,0.00
2013-9-6,71,59,48,54,49,43,93,73,45,30.25,30.05,11,2,12,0.00
2013-9-7,79,65,51,66,59,49,97,83,48,30.09,29.77,9,1,9,0.00
2013-9-8,77,67,47,69,56,45,97,71,44,30.20,29.78,24,4,25,0.00
2013-9-9,74,63,47,66,54,45,95,74,52,30.21,30.03,15,3,18,0.00
2013-9-10,85,76,66,79,72,58,98,87,77,30.09,29.96,16,4,24,0.06
2013-9-11,97,83,74,83,77,70,97,84,61,30.05,29.85,16,3,18,0.43
2013-9-12,88,77,72,80,75,68,100,93,75,29.94,29.60,16,2,17,0.08
2013-9-13,76,68,59,72,61,49,100,80,65,29.92,29.61,23,6,23,0.01
2013-9-14,67,61,55,53,50,43,81,68,56,30.15,29.84,17,5,18,0.00
2013-9-15,73,60,45,59,53,44,96,78,54,30.18,30.00,9,2,10,0.00
2013-9-16,70,61,45,64,54,40,98,81,61,30.39,30.00,19,4,19,0.00
2013-9-17,67,54,43,51,46,40,94,74,48,30.46,30.29,17,3,19,0.00
2013-9-18,75,60,45,59,51,44,97,74,46,30.31,30.12,7,2,8,0.00
2013-9-19,79,62,47,61,54,45,96,78,46,30.14,30.02,7,1,9,0.00
2013-9-20,82,67,54,66,59,52,98,77,46,30.06,29.90,12,2,13,0.00
2013-9-21,77,70,62,70,65,59,97,84,70,29.95,29.58,19,5,24,0.51
2013-9-22,67,63,56,66,53,43,99,71,55,29.95,29.60,18,5,21,0.51
2013-9-23,65,57,51,48,45,40,77,64,50,30.04,29.90,21,6,23,0.00
2013-9-24,74,60,46,50,46,40,87,62,34,30.04,29.85,15,5,18,0.00
2013-9-25,73,60,45,58,51,43,95,76,52,30.01,29.85,12,2,13,0.00
2013-9-26,69,61,50,58,52,46,93,76,55,30.18,29.95,18,4,20,0.00
2013-9-27,66,58,48,57,52,46,97,83,66,30.31,30.12,13,3,14,0.00
2013-9-28,77,62,52,63,55,49,100,81,49,30.34,30.17,10,2,10,0.00
2013-9-29,77,61,51,70,56,48,100,85,52,30.21,30.03,7,2,8,0.00
2013-9-30,78,61,50,64,55,49,98,83,48,30.07,29.94,9,1,10,0.00
2013-10-1,80,64,51,66,59,49,99,86,58,30.00,29.87,7,1,8,0.00
2013-10-2,84,70,57,73,61,50,99,76,51,30.07,29.87,13,2,15,0.00
2013-10-3,80,64,52,65,56,50,96,79,42,30.10,30.00,6,1,8,0.00
2013-10-4,73,65,59,66,62,56,96,90,75,30.04,29.97,12,3,13,0.05
2013-10-5,75,65,59,66,62,57,99,88,71,30.08,30.01,13,3,14,0.07
2013-10-6,70,63,58,70,62,57,100,97,84,30.09,29.87,8,2,10,0.14
2013-10-7,79,69,56,75,66,47,100,93,76,30.14,29.56,32,4,34,0.02
2013-10-8,69,60,48,59,48,42,100,68,43,30.40,29.94,20,4,21,0.01
2013-10-9,68,55,44,56,48,42,99,80,47,30.44,30.26,13,2,13,0.00
2013-10-10,61,55,46,54,50,45,99,87,71,30.31,30.09,9,2,10,0.00
2013-10-11,76,59,48,58,51,44,97,77,39,30.18,30.03,10,3,13,0.00
2013-10-12,78,61,47,59,54,46,98,78,51,30.34,30.11,17,3,18,0.00
2013-10-13,73,62,54,56,53,47,88,74,52,30.38,30.28,11,2,12,0.00
2013-10-14,73,63,50,59,55,47,94,77,56,30.34,30.19,10,2,12,0.00
2013-10-15,76,66,60,63,58,44,94,77,62,30.23,30.05,10,2,13,0.00
2013-10-16,65,62,53,61,55,45,92,78,59,30.09,29.79,14,4,17,0.00
2013-10-17,78,68,62,66,60,53,96,77,48,29.87,29.55,16,3,20,0.05
2013-10-18,71,63,48,66,50,41,96,65,38,29.93,29.55,18,4,18,0.06
2013-10-19,69,58,47,54,47,38,89,68,42,29.93,29.67,22,4,24,0.00
2013-10-20,66,57,45,55,41,36,92,59,36,30.06,29.68,18,4,18,0.00
2013-10-21,71,58,44,49,44,39,85,62,38,30.10,29.78,18,5,20,0.00
2013-10-22,61,54,41,56,47,37,91,78,65,29.90,29.70,16,4,20,0.00
2013-10-23,58,48,38,51,40,30,97,77,48,29.80,29.59,14,2,14,0.00
2013-10-24,57,49,36,40,32,27,88,55,36,30.02,29.70,23,4,26,0.00
2013-10-25,55,47,40,39,35,31,82,65,45,30.14,29.91,21,4,23,0.00
2013-10-26,57,49,38,40,35,31,90,62,40,30.13,29.77,26,6,26,0.00
2013-10-27,58,49,37,40,35,31,89,61,41,30.09,29.77,22,3,24,0.00
2013-10-28,60,48,36,41,36,26,89,64,46,30.40,30.06,16,4,19,0.00
2013-10-29,51,42,36,34,28,26,80,62,43,30.43,30.24,12,3,13,0.00
2013-10-30,58,45,37,49,38,30,95,76,57,30.31,30.11,10,2,11,0.00
2013-10-31,68,56,37,65,55,35,100,97,88,30.19,29.44,24,5,26,0.24
2013-11-1,75,66,53,69,58,42,100,77,48,29.67,29.39,28,7,31,0.23
2013-11-2,69,55,45,57,48,31,96,80,50,30.04,29.57,22,4,27,0.01
2013-11-3,49,41,27,44,29,20,82,66,47,30.61,29.78,26,6,27,0.01
2013-11-4,45,36,27,27,22,20,81,62,40,30.63,30.46,18,3,19,0.00
2013-11-5,57,47,30,45,36,23,83,66,54,30.63,30.33,18,5,19,0.00
2013-11-6,62,57,49,56,48,42,83,73,62,30.43,29.77,26,8,28,0.00
2013-11-7,62,54,45,59,47,33,98,80,63,29.94,29.74,23,7,27,0.50
2013-11-8,50,45,39,39,33,25,77,63,48,30.20,29.86,25,5,44,0.00
2013-11-9,49,45,33,37,32,25,81,64,53,30.21,29.80,17,4,21,0.00
2013-11-10,56,49,45,45,38,32,85,66,49,30.11,29.75,26,5,31,0.00
2013-11-11,54,51,45,38,35,24,70,55,47,30.13,29.88,21,5,27,0.00
2013-11-12,52,37,31,38,24,17,75,62,54,30.31,29.88,23,6,32,0.00
2013-11-13,32,27,20,21,12,5,68,56,36,30.33,30.08,19,5,21,0.00
2013-11-14,46,35,22,19,14,8,68,46,32,30.16,30.03,14,4,15,0.00
2013-11-15,54,39,21,25,16,8,65,43,25,30.23,30.06,16,3,16,0.00
2013-11-16,55,45,34,40,29,17,86,57,39,30.27,30.15,14,3,16,0.00
2013-11-17,56,47,40,55,45,34,99,94,76,30.21,29.46,20,5,26,0.22
2013-11-18,58,51,34,55,36,16,99,60,34,29.92,29.46,26,6,26,0.26
2013-11-19,40,32,20,24,17,9,67,56,45,30.53,29.74,29,8,31,0.00
2013-11-20,33,24,15,13,10,6,78,60,42,30.60,30.34,17,4,17,0.00
2013-11-21,40,31,11,34,20,6,88,67,51,30.60,30.14,15,3,15,0.00
2013-11-22,44,40,38,42,37,17,97,87,66,30.31,29.85,24,4,27,0.02
2013-11-23,44,31,19,36,16,-2,76,56,36,30.04,29.83,29,8,36,0.00
2013-11-24,20,16,9,12,0,-5,89,53,35,30.38,29.93,33,9,36,0.00
2013-11-25,28,21,8,16,7,-1,81,56,46,30.40,30.19,21,5,26,0.00
2013-11-26,35,27,22,32,20,8,98,80,47,30.26,29.35,16,4,16,0.46
2013-11-27,36,32,23,35,28,7,99,87,55,30.00,29.35,26,7,33,0.05
2013-11-28,28,21,16,17,9,4,78,62,45,30.50,29.62,25,5,32,0.05
2013-11-29,27,20,13,14,10,2,81,67,56,30.74,30.41,14,3,14,0.00
2013-11-30,29,21,7,20,9,2,85,62,48,30.74,30.18,13,4,15,0.00
2013-12-1,34,30,25,24,22,15,85,75,65,30.32,29.93,8,2,10,0.03
2013-12-2,34,28,21,29,24,18,94,87,81,29.99,29.86,5,1,5,0.34
2013-12-3,38,28,18,35,24,14,98,88,75,30.09,29.86,14,2,16,0.11
2013-12-4,39,27,18,27,21,14,94,82,62,30.11,29.97,10,1,10,0.01
2013-12-5,49,41,28,49,40,23,99,95,84,30.11,29.83,21,6,22,0.27
2013-12-6,49,35,27,49,31,23,99,88,69,30.20,29.83,19,6,21,0.43
2013-12-7,32,28,24,27,18,10,99,72,53,30.53,30.10,19,5,19,0.03
2013-12-8,25,23,20,19,14,10,92,71,59,30.56,30.16,9,2,10,0.00
2013-12-9,29,26,21,27,24,14,99,95,76,30.38,29.87,15,2,15,0.04
2013-12-10,28,23,14,27,21,9,100,95,79,30.17,29.80,14,2,14,0.04
2013-12-11,25,20,13,16,12,2,89,75,59,30.27,30.01,15,4,17,0.00
2013-12-12,20,15,9,9,2,-2,83,59,43,30.30,29.97,17,4,19,0.00
2013-12-13,26,17,5,13,5,-3,77,62,47,30.47,29.97,18,6,21,0.00
2013-12-14,18,8,4,9,2,-3,92,82,63,30.53,29.55,16,5,16,0.00
2013-12-15,26,20,11,22,14,1,96,84,50,29.96,29.51,19,4,21,0.00
2013-12-16,24,15,-6,15,2,-13,84,61,42,30.20,29.70,19,3,19,0.00
2013-12-17,9,3,-8,5,-1,-13,90,87,80,30.21,29.91,10,2,11,0.00
2013-12-18,24,18,3,19,12,-1,90,84,74,30.07,29.91,13,3,13,0.00
2013-12-19,37,27,22,22,17,14,82,70,50,30.07,29.93,21,4,23,0.01
2013-12-20,45,38,23,30,25,17,82,63,53,30.04,29.84,16,5,19,0.28
2013-12-21,54,46,41,45,35,25,85,68,54,29.91,29.67,23,5,23,0.00
2013-12-22,60,54,41,56,49,35,95,83,72,29.97,29.61,23,8,26,0.11
2013-12-23,54,35,22,49,31,13,99,87,69,30.15,29.85,19,6,21,0.67
2013-12-24,30,23,14,22,12,-2,75,64,54,30.45,30.07,22,7,24,0.00
2013-12-25,21,14,8,12,1,-3,71,59,51,30.49,30.23,16,5,18,0.00
2013-12-26,26,21,13,18,13,4,90,76,61,30.36,30.07,18,4,18,0.00
2013-12-27,31,22,12,21,15,9,92,78,60,30.26,30.06,19,2,19,0.00
2013-12-28,43,29,18,24,19,12,86,71,48,30.18,29.91,18,3,18,0.00
2013-12-29,35,29,22,31,26,17,99,91,75,29.98,29.50,18,3,20,0.01
2013-12-30,29,20,6,28,13,-1,99,78,55,30.18,29.62,26,5,26,0.02
2013-12-31,20,14,6,14,4,-1,85,69,48,30.28,29.97,21,3,24,0.00
2014-1-1,22,16,9,10,4,-3,92,64,40,30.33,30.18,21,4,24,0.00
2014-1-2,14,0,-7,10,-4,-12,92,87,81,30.27,29.80,27,9,29,0.00